| time (UTC) | temp C | wind direction | speed KPH | gust KPH | rain 1hr cm | rain 24hr cm | rain mn cm | humidity % | barometer mb |
| 20260505074253 | 16 | 34 | 20.9 | 38.6 | 0.00 | 0.00 | 0.00 | 45 | 1005.0 |
| 20260505074248 | 16 | 24 | 24.1 | 38.6 | 0.00 | 0.00 | 0.00 | 45 | 1005.0 |
| 20260505074243 | 16 | 50 | 20.9 | 32.2 | 0.00 | 0.00 | 0.00 | 48 | 1004.7 |
| 20260505074237 | 16 | 40 | 14.5 | 29.0 | 0.00 | 0.00 | 0.00 | 53 | 1004.2 |
| 20260505053543 | 16 | 42 | 17.7 | 29.0 | 0.00 | 0.00 | 0.00 | 53 | 1004.0 |
| 20260505053129 | 16 | 44 | 19.3 | 32.2 | 0.00 | 0.00 | 0.00 | 53 | 1003.9 |
| 20260505052543 | 16 | 36 | 20.9 | 32.2 | 0.00 | 0.00 | 0.00 | 53 | 1003.6 |
| 20260505052038 | 16 | 36 | 17.7 | 29.0 | 0.00 | 0.00 | 0.00 | 53 | 1003.6 |
| 20260505051653 | 16 | 44 | 20.9 | 29.0 | 0.00 | 0.00 | 0.00 | 53 | 1003.3 |
| 20260505051018 | 17 | 46 | 16.1 | 27.4 | 0.00 | 0.00 | 0.00 | 53 | 1003.4 |
| 20260505050519 | 17 | 46 | 17.7 | 27.4 | 0.00 | 0.00 | 0.00 | 53 | 1003.5 |
| 20260505050228 | 17 | 50 | 16.1 | 29.0 | 0.00 | 0.00 | 0.00 | 53 | 1003.6 |
| 20260505041711 | 18 | 54 | 8.0 | 22.5 | 0.00 | 0.00 | 0.00 | 55 | 1003.3 |
| 20260505041038 | 18 | 30 | 11.3 | 22.5 | 0.00 | 0.00 | 0.00 | 56 | 1003.4 |
| 20260505040522 | 17 | 51 | 6.4 | 14.5 | 0.00 | 0.00 | 0.00 | 58 | 1003.6 |
| 20260505040225 | 17 | 46 | 6.4 | 19.3 | 0.00 | 0.00 | 0.00 | 58 | 1003.1 |
| 20260505035548 | 17 | 53 | 11.3 | 16.1 | 0.00 | 0.00 | 0.00 | 59 | 1003.0 |
| 20260505035034 | 17 | 69 | 8.0 | 12.9 | 0.00 | 0.00 | 0.00 | 59 | 1003.1 |
| 20260505034721 | 16 | 82 | 0.0 | 0.0 | 0.00 | 0.00 | 0.00 | 60 | 1003.1 |
| 20260505034042 | 16 | 60 | 0.0 | 0.0 | 0.00 | 0.00 | 0.00 | 59 | 1003.0 |
| 20260505033531 | 17 | 89 | 0.0 | 0.0 | 0.00 | 0.00 | 0.00 | 58 | 1003.0 |
| 20260505033217 | 17 | 56 | 0.0 | 0.0 | 0.00 | 0.00 | 0.00 | 58 | 1003.0 |
| 20260505032542 | 17 | 64 | 0.0 | 9.7 | 0.00 | 0.00 | 0.00 | 57 | 1003.0 |
| 20260505032031 | 17 | 84 | 4.8 | 9.7 | 0.00 | 0.00 | 0.00 | 56 | 1002.8 |
| 20260505031710 | 18 | 41 | 0.0 | 0.0 | 0.00 | 0.00 | 0.00 | 54 | 1003.0 |
| 20260505031034 | 18 | 41 | 0.0 | 8.0 | 0.00 | 0.00 | 0.00 | 53 | 1002.8 |
| 20260505030549 | 19 | 47 | 1.6 | 12.9 | 0.00 | 0.00 | 0.00 | 52 | 1002.7 |
| 20260505030221 | 19 | 37 | 4.8 | 12.9 | 0.00 | 0.00 | 0.00 | 50 | 1002.5 |
| 20260505025521 | 19 | 34 | 8.0 | 22.5 | 0.00 | 0.00 | 0.00 | 52 | 1002.4 |
| 20260505025027 | 18 | 5 | 14.5 | 22.5 | 0.00 | 0.00 | 0.00 | 54 | 1002.2 |
| 20260505024703 | 17 | 26 | 9.7 | 19.3 | 0.00 | 0.00 | 0.00 | 56 | 1002.2 |
| 20260505024032 | 17 | 13 | 8.0 | 12.9 | 0.00 | 0.00 | 0.00 | 58 | 1002.2 |
| 20260505023537 | 17 | 24 | 1.6 | 8.0 | 0.00 | 0.00 | 0.00 | 60 | 1002.1 |
| 20260505023159 | 17 | 33 | 0.0 | 0.0 | 0.00 | 0.00 | 0.00 | 61 | 1002.1 |
| 20260505022534 | 17 | 88 | 0.0 | 0.0 | 0.00 | 0.00 | 0.00 | 60 | 1002.1 |
| 20260505022028 | 17 | 70 | 0.0 | 0.0 | 0.00 | 0.00 | 0.00 | 60 | 1002.1 |
| 20260505021720 | 17 | 57 | 0.0 | 0.0 | 0.00 | 0.00 | 0.00 | 61 | 1002.0 |
| 20260505021026 | 17 | 50 | 0.0 | 0.0 | 0.00 | 0.00 | 0.00 | 62 | 1002.1 |
| 20260505020530 | 17 | 74 | 0.0 | 0.0 | 0.00 | 0.00 | 0.00 | 63 | 1001.7 |
| 20260505020223 | 17 | 130 | 0.0 | 0.0 | 0.00 | 0.00 | 0.00 | 61 | 1001.6 |
| 20260505015526 | 17 | 138 | 0.0 | 0.0 | 0.00 | 0.00 | 0.00 | 61 | 1001.5 |
| 20260505015045 | 18 | 132 | 0.0 | 0.0 | 0.00 | 0.00 | 0.00 | 61 | 1001.5 |
| 20260505014709 | 18 | 138 | 0.0 | 0.0 | 0.00 | 0.00 | 0.00 | 61 | 1001.7 |
| 20260505014026 | 19 | 142 | 0.0 | 0.0 | 0.00 | 0.00 | 0.00 | 60 | 1001.7 |
| 20260505013527 | 20 | 98 | 0.0 | 0.0 | 0.00 | 0.00 | 0.00 | 57 | 1001.8 |
| 20260505013219 | 20 | 69 | 0.0 | 0.0 | 0.00 | 0.00 | 0.00 | 53 | 1001.9 |
| 20260505012529 | 21 | 95 | 0.0 | 0.0 | 0.00 | 0.00 | 0.00 | 56 | 1002.0 |
| 20260505012022 | 21 | 101 | 0.0 | 0.0 | 0.00 | 0.00 | 0.00 | 48 | 1002.0 |
| 20260505011714 | 21 | 85 | 0.0 | 0.0 | 0.00 | 0.00 | 0.00 | 53 | 1002.0 |
| 20260505011026 | 21 | 51 | 0.0 | 8.0 | 0.00 | 0.00 | 0.00 | 51 | 1001.9 |
| 20260505010525 | 21 | 47 | 1.6 | 8.0 | 0.00 | 0.00 | 0.00 | 47 | 1002.2 |
| 20260505010222 | 21 | 5 | 3.2 | 6.4 | 0.00 | 0.00 | 0.00 | 48 | 1002.0 |
| 20260505005545 | 21 | 317 | 0.0 | 0.0 | 0.00 | 0.00 | 0.00 | 48 | 1002.3 |
| 20260505005042 | 21 | 33 | 0.0 | 0.0 | 0.00 | 0.00 | 0.00 | 50 | 1002.3 |
| 20260505004720 | 22 | 103 | 0.0 | 1.6 | 0.00 | 0.00 | 0.00 | 48 | 1002.3 |
| 20260505004038 | 22 | 130 | 0.0 | 6.4 | 0.00 | 0.00 | 0.00 | 46 | 1002.6 |
| 20260505003535 | 22 | 135 | 3.2 | 9.7 | 0.00 | 0.00 | 0.00 | 44 | 1002.2 |
| 20260505003213 | 22 | 142 | 6.4 | 14.5 | 0.00 | 0.00 | 0.00 | 42 | 1002.4 |
| 20260505002538 | 23 | 236 | 8.0 | 35.4 | 0.00 | 0.00 | 0.00 | 42 | 1002.7 |
| 20260505002037 | 23 | 254 | 17.7 | 35.4 | 0.00 | 0.00 | 0.00 | 39 | 1003.0 |
| 20260505001631 | 25 | 232 | 16.1 | 40.2 | 0.00 | 0.00 | 0.00 | 35 | 1003.0 |
| 20260505001037 | 25 | 96 | 12.9 | 40.2 | 0.00 | 0.00 | 0.00 | 32 | 1003.5 |
| 20260505000530 | 25 | 296 | 27.4 | 38.6 | 0.00 | 0.00 | 0.00 | 29 | 1002.6 |
| 20260505000213 | 25 | 290 | 12.9 | 24.1 | 0.00 | 0.00 | 0.00 | 32 | 1002.3 |
| 20260504235518 | 25 | 271 | 0.0 | 1.6 | 0.00 | 0.00 | 0.00 | 31 | 1002.1 |
| 20260504235042 | 26 | 253 | 0.0 | 1.6 | 0.00 | 0.00 | 0.00 | 30 | 1001.9 |
| 20260504234654 | 26 | 260 | 0.0 | 0.0 | 0.00 | 0.00 | 0.00 | 29 | 1002.1 |
| 20260504234040 | 26 | 239 | 0.0 | 1.6 | 0.00 | 0.00 | 0.00 | 29 | 1001.8 |
| 20260504233541 | 26 | 238 | 0.0 | 1.6 | 0.00 | 0.00 | 0.00 | 29 | 1001.8 |
| 20260504233156 | 26 | 228 | 0.0 | 8.0 | 0.00 | 0.00 | 0.00 | 29 | 1001.7 |
| 20260504232539 | 26 | 202 | 3.2 | 9.7 | 0.00 | 0.00 | 0.00 | 29 | 1001.8 |
| 20260504232052 | 26 | 161 | 6.4 | 14.5 | 0.00 | 0.00 | 0.00 | 29 | 1001.7 |
| 20260504231643 | 26 | 160 | 9.7 | 19.3 | 0.00 | 0.00 | 0.00 | 29 | 1001.6 |
| 20260504231038 | 26 | 146 | 11.3 | 19.3 | 0.00 | 0.00 | 0.00 | 29 | 1001.7 |
| 20260504230521 | 26 | 121 | 14.5 | 20.9 | 0.00 | 0.00 | 0.00 | 29 | 1001.9 |
| 20260504230213 | 26 | 99 | 12.9 | 20.9 | 0.00 | 0.00 | 0.00 | 29 | 1001.6 |
| 20260504225545 | 26 | 142 | 14.5 | 20.9 | 0.00 | 0.00 | 0.00 | 31 | 1001.9 |
| 20260504225033 | 26 | 143 | 17.7 | 27.4 | 0.00 | 0.00 | 0.00 | 30 | 1002.2 |
| 20260504224652 | 26 | 165 | 17.7 | 30.6 | 0.00 | 0.00 | 0.00 | 29 | 1002.0 |
| 20260504224041 | 27 | 161 | 24.1 | 30.6 | 0.00 | 0.00 | 0.00 | 28 | 1001.9 |
| 20260504223525 | 27 | 163 | 17.7 | 30.6 | 0.00 | 0.00 | 0.00 | 26 | 1002.0 |
| 20260504223152 | 28 | 158 | 17.7 | 29.0 | 0.00 | 0.00 | 0.00 | 27 | 1002.2 |
| 20260504222534 | 29 | 188 | 22.5 | 29.0 | 0.00 | 0.00 | 0.00 | 26 | 1002.4 |
| 20260504222045 | 29 | 132 | 16.1 | 25.7 | 0.00 | 0.00 | 0.00 | 25 | 1002.2 |
| 20260504221703 | 29 | 101 | 19.3 | 25.7 | 0.00 | 0.00 | 0.00 | 25 | 1002.1 |
| 20260504221033 | 29 | 107 | 16.1 | 22.5 | 0.00 | 0.00 | 0.00 | 25 | 1002.2 |
| 20260504220533 | 28 | 134 | 16.1 | 20.9 | 0.00 | 0.00 | 0.00 | 26 | 1002.1 |
| 20260504220201 | 28 | 110 | 14.5 | 22.5 | 0.00 | 0.00 | 0.00 | 25 | 1002.2 |
| 20260504215534 | 29 | 95 | 14.5 | 22.5 | 0.00 | 0.00 | 0.00 | 24 | 1002.2 |
| 20260504215031 | 29 | 112 | 16.1 | 24.1 | 0.00 | 0.00 | 0.00 | 23 | 1002.1 |
| 20260504214653 | 30 | 105 | 17.7 | 27.4 | 0.00 | 0.00 | 0.00 | 22 | 1002.0 |
| 20260504214045 | 30 | 155 | 17.7 | 27.4 | 0.00 | 0.00 | 0.00 | 21 | 1001.9 |
| 20260504213544 | 30 | 111 | 11.3 | 22.5 | 0.00 | 0.00 | 0.00 | 20 | 1002.1 |
| 20260504213153 | 30 | 96 | 9.7 | 22.5 | 0.00 | 0.00 | 0.00 | 19 | 1002.2 |
| 20260504212527 | 30 | 121 | 11.3 | 27.4 | 0.00 | 0.00 | 0.00 | 20 | 1002.2 |
| 20260504212033 | 30 | 101 | 19.3 | 27.4 | 0.00 | 0.00 | 0.00 | 21 | 1002.3 |
| 20260504211700 | 30 | 132 | 19.3 | 27.4 | 0.00 | 0.00 | 0.00 | 20 | 1002.2 |
| 20260504211019 | 30 | 63 | 11.3 | 24.1 | 0.00 | 0.00 | 0.00 | 22 | 1002.4 |
| 20260504210526 | 30 | 98 | 11.3 | 25.7 | 0.00 | 0.00 | 0.00 | 22 | 1002.5 |
| 20260504210218 | 31 | 125 | 19.3 | 35.4 | 0.00 | 0.00 | 0.00 | 21 | 1002.6 |
| 20260504205519 | 31 | 116 | 16.1 | 37.0 | 0.00 | 0.00 | 0.00 | 22 | 1002.4 |
| 20260504205045 | 31 | 125 | 17.7 | 29.0 | 0.00 | 0.00 | 0.00 | 23 | 1002.7 |
| 20260504204619 | 31 | 55 | 6.4 | 19.3 | 0.00 | 0.00 | 0.00 | 21 | 1002.8 |
| 20260504204035 | 31 | 82 | 11.3 | 19.3 | 0.00 | 0.00 | 0.00 | 20 | 1002.9 |
| 20260504203545 | 30 | 86 | 8.0 | 24.1 | 0.00 | 0.00 | 0.00 | 20 | 1002.8 |
| 20260504203217 | 30 | 105 | 8.0 | 20.9 | 0.00 | 0.00 | 0.00 | 19 | 1003.0 |
| 20260504202536 | 30 | 89 | 9.7 | 22.5 | 0.00 | 0.00 | 0.00 | 20 | 1003.2 |
| 20260504202019 | 30 | 103 | 14.5 | 22.5 | 0.00 | 0.00 | 0.00 | 20 | 1003.3 |
| 20260504201719 | 31 | 141 | 11.3 | 19.3 | 0.00 | 0.00 | 0.00 | 19 | 1003.3 |
| 20260504201026 | 31 | 103 | 8.0 | 20.9 | 0.00 | 0.00 | 0.00 | 20 | 1003.4 |
| 20260504200546 | 31 | 93 | 9.7 | 20.9 | 0.00 | 0.00 | 0.00 | 19 | 1003.4 |
| 20260504200211 | 31 | 54 | 8.0 | 19.3 | 0.00 | 0.00 | 0.00 | 18 | 1003.5 |
| 20260504195522 | 31 | 86 | 4.8 | 22.5 | 0.00 | 0.00 | 0.00 | 18 | 1003.5 |
| 20260504195027 | 31 | 80 | 8.0 | 24.1 | 0.00 | 0.00 | 0.00 | 17 | 1003.6 |
| 20260504194642 | 31 | 94 | 14.5 | 24.1 | 0.00 | 0.00 | 0.00 | 18 | 1003.6 |
| 20260504194018 | 31 | 83 | 12.9 | 25.7 | 0.00 | 0.00 | 0.00 | 18 | 1003.8 |
| 20260504193543 | 31 | 70 | 12.9 | 25.7 | 0.00 | 0.00 | 0.00 | 18 | 1003.8 |
| 20260504193157 | 30 | 59 | 14.5 | 20.9 | 0.00 | 0.00 | 0.00 | 19 | 1003.7 |
| 20260504192546 | 30 | 78 | 8.0 | 24.1 | 0.00 | 0.00 | 0.00 | 17 | 1003.8 |
| 20260504192034 | 30 | 42 | 6.4 | 24.1 | 0.00 | 0.00 | 0.00 | 19 | 1003.9 |
| 20260504191635 | 30 | 86 | 8.0 | 27.4 | 0.00 | 0.00 | 0.00 | 18 | 1003.9 |
| 20260504191043 | 30 | 57 | 12.9 | 27.4 | 0.00 | 0.00 | 0.00 | 18 | 1004.1 |
| 20260504190520 | 30 | 78 | 11.3 | 22.5 | 0.00 | 0.00 | 0.00 | 17 | 1004.3 |
| 20260504190228 | 30 | 115 | 11.3 | 24.1 | 0.00 | 0.00 | 0.00 | 18 | 1004.4 |
| 20260504185542 | 30 | 92 | 11.3 | 24.1 | 0.00 | 0.00 | 0.00 | 18 | 1004.5 |
| 20260504185038 | 30 | 54 | 9.7 | 19.3 | 0.00 | 0.00 | 0.00 | 19 | 1004.5 |
| 20260504184636 | 30 | 24 | 9.7 | 20.9 | 0.00 | 0.00 | 0.00 | 19 | 1004.5 |
| 20260504184024 | 30 | 74 | 11.3 | 25.7 | 0.00 | 0.00 | 0.00 | 19 | 1004.6 |
| 20260504183521 | 30 | 96 | 16.1 | 25.7 | 0.00 | 0.00 | 0.00 | 20 | 1004.5 |
| 20260504183138 | 30 | 65 | 14.5 | 24.1 | 0.00 | 0.00 | 0.00 | 19 | 1004.6 |
| 20260504182524 | 30 | 38 | 11.3 | 24.1 | 0.00 | 0.00 | 0.00 | 19 | 1004.7 |
| 20260504182031 | 30 | 59 | 14.5 | 22.5 | 0.00 | 0.00 | 0.00 | 19 | 1004.8 |
| 20260504181624 | 29 | 51 | 11.3 | 20.9 | 0.00 | 0.00 | 0.00 | 20 | 1004.4 |
| 20260504181045 | 29 | 82 | 9.7 | 20.9 | 0.00 | 0.00 | 0.00 | 20 | 1004.6 |
| 20260504180535 | 29 | 55 | 8.0 | 20.9 | 0.00 | 0.00 | 0.00 | 20 | 1004.6 |
| 20260504180220 | 29 | 18 | 9.7 | 20.9 | 0.00 | 0.00 | 0.00 | 20 | 1004.9 |
| 20260504175521 | 29 | 70 | 12.9 | 20.9 | 0.00 | 0.00 | 0.00 | 19 | 1004.8 |
| 20260504175021 | 29 | 32 | 6.4 | 19.3 | 0.00 | 0.00 | 0.00 | 20 | 1004.9 |
| 20260504174653 | 29 | 80 | 8.0 | 20.9 | 0.00 | 0.00 | 0.00 | 22 | 1005.0 |
| 20260504174025 | 28 | 93 | 9.7 | 19.3 | 0.00 | 0.00 | 0.00 | 21 | 1004.9 |
| 20260504173538 | 28 | 81 | 6.4 | 17.7 | 0.00 | 0.00 | 0.00 | 21 | 1005.0 |
| 20260504173144 | 28 | 83 | 8.0 | 22.5 | 0.00 | 0.00 | 0.00 | 22 | 1005.0 |
| 20260504172528 | 28 | 38 | 9.7 | 22.5 | 0.00 | 0.00 | 0.00 | 23 | 1005.2 |
| 20260504172042 | 28 | 43 | 8.0 | 22.5 | 0.00 | 0.00 | 0.00 | 24 | 1005.2 |
| 20260504171702 | 27 | 46 | 6.4 | 14.5 | 0.00 | 0.00 | 0.00 | 24 | 1005.3 |
| 20260504171031 | 27 | 74 | 3.2 | 24.1 | 0.00 | 0.00 | 0.00 | 25 | 1005.3 |
| 20260504170522 | 27 | 28 | 9.7 | 24.1 | 0.00 | 0.00 | 0.00 | 24 | 1005.4 |
| 20260504170212 | 27 | 16 | 6.4 | 19.3 | 0.00 | 0.00 | 0.00 | 25 | 1005.2 |
| 20260504160129 | 25 | 269 | 0.0 | 12.9 | 0.00 | 0.00 | 0.00 | 32 | 1004.8 |
| 20260504151027 | 22 | 238 | 9.7 | 17.7 | 0.00 | 0.00 | 0.00 | 37 | 1004.6 |
| 20260504150535 | 22 | 250 | 9.7 | 19.3 | 0.00 | 0.00 | 0.00 | 39 | 1004.7 |
| 20260504150152 | 21 | 232 | 11.3 | 19.3 | 0.00 | 0.00 | 0.00 | 39 | 1004.8 |
| 20260504141042 | 18 | 242 | 9.7 | 19.3 | 0.00 | 0.00 | 0.00 | 48 | 1004.9 |
| 20260504140534 | 18 | 248 | 12.9 | 19.3 | 0.00 | 0.00 | 0.00 | 48 | 1004.9 |
| 20260504140149 | 17 | 240 | 11.3 | 19.3 | 0.00 | 0.00 | 0.00 | 49 | 1004.9 |